createdAt,value
2023-08-15T00:01:19.270Z,25.05
2023-08-15T00:03:49.321Z,25.00
2023-08-15T00:06:18.517Z,24.99
2023-08-15T00:08:47.205Z,24.95
2023-08-15T00:11:17.463Z,24.96
2023-08-15T00:13:47.273Z,24.92
2023-08-15T00:16:15.626Z,24.80
2023-08-15T00:18:44.451Z,24.79
2023-08-15T00:21:12.361Z,24.76
2023-08-15T00:23:40.421Z,24.77
2023-08-15T00:26:09.795Z,24.82
2023-08-15T00:28:39.205Z,24.76
2023-08-15T00:31:13.293Z,24.83
2023-08-15T00:33:42.868Z,24.71
2023-08-15T00:36:11.945Z,24.62
2023-08-15T00:38:46.493Z,24.55
2023-08-15T00:41:19.511Z,24.63
2023-08-15T00:44:17.236Z,24.65
2023-08-15T00:46:45.757Z,24.62
2023-08-15T00:49:36.536Z,24.70
2023-08-15T00:52:07.264Z,24.66
2023-08-15T00:54:35.977Z,24.65
2023-08-15T00:57:12.434Z,24.76
2023-08-15T00:59:45.901Z,24.70
2023-08-15T01:02:15.070Z,24.69
2023-08-15T01:04:45.742Z,24.74
2023-08-15T01:07:14.149Z,24.75
2023-08-15T01:09:42.925Z,24.67
2023-08-15T01:12:21.852Z,24.70
2023-08-15T01:14:54.819Z,24.81
2023-08-15T01:17:33.367Z,24.79
2023-08-15T01:20:08.540Z,24.80
2023-08-15T01:22:38.944Z,24.75
2023-08-15T01:25:09.141Z,24.69
2023-08-15T01:27:37.204Z,24.64
2023-08-15T01:30:05.491Z,24.61
2023-08-15T01:32:40.405Z,24.50
2023-08-15T01:35:22.753Z,24.54
2023-08-15T01:37:57.224Z,24.45
2023-08-15T01:40:31.162Z,24.36
2023-08-15T01:43:01.360Z,24.31
2023-08-15T01:45:30.284Z,24.31
2023-08-15T01:47:58.502Z,24.47
2023-08-15T01:50:26.685Z,24.31
2023-08-15T01:52:57.449Z,24.44
2023-08-15T01:55:27.260Z,24.43
2023-08-15T01:57:55.127Z,24.41
2023-08-15T02:00:22.998Z,24.65
2023-08-15T02:02:51.499Z,24.50
2023-08-15T02:05:19.757Z,24.51
2023-08-15T02:07:47.979Z,24.41
2023-08-15T02:10:16.969Z,24.55
2023-08-15T02:12:47.491Z,24.56
2023-08-15T02:15:16.214Z,24.60
2023-08-15T02:17:44.295Z,24.71
2023-08-15T02:20:13.722Z,24.67
2023-08-15T02:22:42.780Z,24.63
2023-08-15T02:25:11.030Z,24.64
2023-08-15T02:27:39.216Z,24.57
2023-08-15T02:30:10.421Z,24.50
2023-08-15T02:32:38.412Z,24.49
2023-08-15T02:35:08.526Z,24.56
2023-08-15T02:37:36.808Z,24.59
2023-08-15T02:40:12.748Z,24.55
2023-08-15T02:42:40.820Z,24.69
2023-08-15T02:45:15.015Z,24.70
2023-08-15T02:47:46.233Z,24.69
2023-08-15T02:50:15.439Z,24.66
2023-08-15T02:52:44.030Z,24.75
2023-08-15T02:55:12.151Z,24.78
2023-08-15T02:57:40.306Z,24.79
2023-08-15T03:00:14.336Z,24.71
2023-08-15T03:02:42.631Z,24.70
2023-08-15T03:05:10.784Z,24.69
2023-08-15T03:07:38.824Z,24.58
2023-08-15T03:10:07.791Z,24.82
2023-08-15T03:12:36.781Z,24.87
2023-08-15T03:15:06.533Z,25.09
2023-08-15T03:17:36.361Z,25.17
2023-08-15T03:20:09.023Z,25.22
2023-08-15T03:22:37.117Z,25.37
2023-08-15T03:25:05.498Z,25.51
2023-08-15T03:27:33.483Z,25.72
2023-08-15T03:30:01.508Z,25.83
2023-08-15T03:32:29.644Z,25.77
2023-08-15T03:34:59.509Z,25.72
2023-08-15T03:37:27.800Z,25.68
2023-08-15T03:39:56.923Z,25.79
2023-08-15T03:42:25.400Z,25.61
2023-08-15T03:44:53.378Z,25.67
2023-08-15T03:47:21.320Z,25.77
2023-08-15T03:49:49.447Z,25.65
2023-08-15T03:52:18.754Z,25.63
2023-08-15T03:54:46.724Z,25.94
2023-08-15T03:57:16.117Z,25.81
2023-08-15T03:59:44.258Z,25.78
2023-08-15T04:02:12.424Z,25.96
2023-08-15T04:04:41.028Z,25.89
2023-08-15T04:07:08.912Z,25.80
2023-08-15T04:09:39.845Z,25.74
2023-08-15T04:12:08.177Z,26.02
2023-08-15T04:14:36.201Z,25.67
2023-08-15T04:17:06.697Z,25.81
2023-08-15T04:19:34.647Z,25.74
2023-08-15T04:22:02.661Z,25.71
2023-08-15T04:24:30.791Z,25.81
2023-08-15T04:27:02.967Z,25.56
2023-08-15T04:29:31.163Z,25.62
2023-08-15T04:31:59.364Z,25.51
2023-08-15T04:34:29.466Z,25.40
2023-08-15T04:36:58.516Z,25.30
2023-08-15T04:39:28.164Z,25.44
2023-08-15T04:41:56.095Z,25.52
2023-08-15T04:44:25.624Z,25.41
2023-08-15T04:46:54.803Z,25.83
2023-08-15T04:49:24.915Z,25.81
2023-08-15T04:51:53.054Z,25.80
2023-08-15T04:54:21.356Z,25.75
2023-08-15T04:56:50.308Z,25.32
2023-08-15T04:59:18.960Z,25.53
2023-08-15T05:01:48.524Z,25.50
2023-08-15T05:04:16.546Z,25.63
2023-08-15T05:06:45.210Z,25.61
2023-08-15T05:09:13.344Z,25.40
2023-08-15T05:11:41.506Z,25.45
2023-08-15T05:14:13.009Z,25.67
2023-08-15T05:16:40.923Z,25.89
2023-08-15T05:19:12.323Z,25.88
2023-08-15T05:21:42.149Z,25.72
2023-08-15T05:24:10.567Z,26.01
2023-08-15T05:26:38.508Z,25.92
2023-08-15T05:29:06.606Z,26.19
2023-08-15T05:31:34.902Z,26.08
2023-08-15T05:34:02.964Z,26.28
2023-08-15T05:36:33.434Z,26.22
2023-08-15T05:39:05.347Z,26.33
2023-08-15T05:41:34.635Z,26.47
2023-08-15T05:44:02.673Z,26.46
2023-08-15T05:46:31.971Z,26.27
2023-08-15T05:48:59.986Z,26.29
2023-08-15T05:51:28.208Z,25.94
2023-08-15T05:54:03.119Z,26.26
2023-08-15T05:56:31.218Z,26.16
2023-08-15T05:59:06.230Z,26.07
2023-08-15T06:01:41.873Z,25.94
2023-08-15T06:04:10.505Z,25.72
2023-08-15T06:06:38.614Z,26.26
2023-08-15T06:09:08.099Z,25.75
2023-08-15T06:11:38.556Z,25.69
2023-08-15T06:14:06.865Z,25.69
2023-08-15T06:16:36.965Z,25.51
2023-08-15T06:19:05.192Z,25.82
2023-08-15T06:21:33.358Z,26.24
2023-08-15T06:24:01.265Z,25.99
2023-08-15T06:26:33.253Z,26.07
2023-08-15T06:29:01.250Z,26.71
2023-08-15T06:31:30.283Z,26.45
2023-08-15T06:33:58.326Z,26.38
2023-08-15T06:36:27.376Z,26.98
2023-08-15T06:38:56.425Z,27.87
2023-08-15T06:41:26.431Z,28.52
2023-08-15T06:43:59.070Z,28.82
2023-08-15T06:46:27.091Z,29.13
2023-08-15T06:49:09.147Z,30.03
2023-08-15T06:51:38.450Z,29.86
2023-08-15T06:54:14.590Z,30.43
2023-08-15T06:57:01.965Z,29.33
2023-08-15T06:59:46.572Z,29.09
2023-08-15T07:02:21.014Z,29.97
2023-08-15T07:04:54.643Z,29.11
2023-08-15T07:07:23.173Z,29.24
2023-08-15T07:09:53.232Z,29.88
2023-08-15T07:12:52.826Z,29.65
2023-08-15T07:19:16.247Z,29.65
2023-08-15T07:21:44.616Z,29.86
2023-08-15T07:24:23.824Z,29.29
2023-08-15T07:31:08.684Z,31.33
2023-08-15T07:33:41.804Z,32.06
2023-08-15T07:36:28.881Z,32.19
2023-08-15T07:39:08.158Z,30.08
2023-08-15T07:42:07.296Z,29.70
2023-08-15T07:45:07.403Z,28.88
2023-08-15T07:47:47.270Z,27.78
2023-08-15T07:50:23.404Z,27.87
2023-08-15T07:53:03.702Z,28.08
2023-08-15T07:55:38.477Z,29.69
2023-08-15T07:58:07.817Z,28.67
2023-08-15T08:00:36.513Z,29.32
2023-08-15T08:03:08.887Z,29.69
2023-08-15T08:05:38.152Z,30.59
2023-08-15T08:08:09.777Z,30.75
2023-08-15T08:10:44.244Z,31.43
2023-08-15T08:13:33.272Z,31.41
2023-08-15T08:16:01.925Z,30.99
2023-08-15T08:18:30.148Z,30.56
2023-08-15T09:05:12.181Z,33.25
2023-08-15T09:08:11.961Z,33.40
2023-08-15T09:13:56.484Z,32.18
2023-08-15T09:16:27.784Z,33.24
2023-08-15T09:21:55.032Z,34.05
2023-08-15T09:24:49.740Z,32.21
2023-08-15T09:31:01.429Z,33.88
2023-08-15T09:43:04.894Z,31.05
2023-08-15T09:45:34.182Z,29.82
2023-08-15T09:48:07.272Z,29.55
2023-08-15T09:51:12.064Z,30.04
2023-08-15T09:54:02.308Z,30.28
2023-08-15T10:05:46.919Z,29.63
2023-08-15T10:08:34.548Z,29.22
2023-08-15T10:11:49.433Z,29.43
2023-08-15T10:21:51.194Z,33.03
2023-08-15T10:24:20.178Z,33.71
2023-08-15T10:26:51.237Z,32.48
2023-08-15T10:29:19.450Z,33.23
2023-08-15T10:32:10.433Z,33.54
2023-08-15T10:34:41.069Z,33.23
2023-08-15T10:37:32.942Z,33.11
2023-08-15T10:40:16.737Z,33.79
2023-08-15T10:43:12.823Z,34.41
2023-08-15T10:45:49.662Z,34.37
2023-08-15T10:48:47.513Z,32.70
2023-08-15T10:51:33.845Z,32.30
2023-08-15T10:54:12.451Z,32.10
2023-08-15T10:56:42.953Z,32.75
2023-08-15T10:59:14.158Z,32.06
2023-08-15T11:01:44.576Z,31.12
2023-08-15T11:08:29.643Z,31.60
2023-08-15T11:14:03.424Z,33.29
2023-08-15T11:16:38.750Z,32.39
2023-08-15T11:19:07.461Z,32.62
2023-08-15T11:24:37.407Z,36.66
2023-08-15T11:27:27.824Z,35.45
2023-08-15T11:43:37.920Z,33.92
2023-08-15T11:46:52.882Z,33.31
2023-08-15T11:52:51.634Z,32.02
2023-08-15T11:55:30.914Z,31.49
2023-08-15T12:11:33.079Z,33.33
2023-08-15T12:14:42.137Z,33.13
2023-08-15T12:17:39.073Z,33.12
2023-08-15T12:54:18.511Z,31.14
2023-08-15T12:56:59.181Z,32.06
2023-08-15T12:59:31.907Z,32.26
2023-08-15T13:05:49.077Z,31.73
2023-08-15T13:08:30.740Z,30.66
2023-08-15T13:11:30.929Z,31.16
2023-08-15T14:02:41.442Z,34.53
2023-08-15T14:05:58.075Z,32.00
2023-08-15T14:09:04.240Z,31.23
2023-08-15T14:11:42.550Z,30.49
2023-08-15T14:21:15.642Z,31.84
2023-08-15T14:23:49.165Z,32.32
2023-08-15T14:26:18.601Z,32.49
2023-08-15T14:28:47.400Z,31.94
2023-08-15T14:31:16.017Z,32.09
2023-08-15T14:33:52.528Z,32.00
2023-08-15T14:36:21.843Z,33.04
2023-08-15T14:38:55.188Z,31.83
2023-08-15T14:41:25.153Z,32.07
2023-08-15T14:43:55.561Z,33.93
2023-08-15T14:46:26.928Z,35.31
2023-08-15T14:48:57.227Z,34.96
2023-08-15T14:51:32.069Z,32.54
2023-08-15T14:54:03.110Z,33.27
2023-08-15T14:56:31.593Z,33.23
2023-08-15T14:59:03.740Z,35.21
2023-08-15T15:01:33.626Z,34.12
2023-08-15T15:04:03.470Z,34.46
2023-08-15T15:06:35.573Z,34.60
2023-08-15T15:09:03.994Z,35.48
2023-08-15T15:11:32.701Z,34.64
2023-08-15T15:14:02.214Z,34.73
2023-08-15T15:16:30.556Z,34.82
2023-08-15T15:18:59.214Z,35.46
2023-08-15T15:21:29.378Z,33.31
2023-08-15T15:23:57.633Z,33.61
2023-08-15T15:26:26.203Z,32.66
2023-08-15T15:28:54.574Z,31.59
2023-08-15T15:31:24.050Z,30.90
2023-08-15T15:33:52.077Z,30.85
2023-08-15T15:36:20.192Z,32.72
2023-08-15T15:38:54.668Z,32.51
2023-08-15T15:41:23.541Z,33.12
2023-08-15T15:43:56.647Z,31.91
2023-08-15T15:46:25.160Z,32.14
2023-08-15T15:48:54.236Z,32.85
2023-08-15T15:51:22.736Z,34.41
2023-08-15T15:53:53.415Z,33.98
2023-08-15T15:56:27.825Z,31.33
2023-08-15T15:58:55.945Z,33.25
2023-08-15T16:01:24.446Z,34.84
2023-08-15T16:03:52.875Z,33.04
2023-08-15T16:06:23.304Z,32.42
2023-08-15T16:09:22.536Z,31.34
2023-08-15T16:12:06.270Z,31.32
2023-08-15T16:14:36.276Z,33.38
2023-08-15T16:17:05.033Z,34.22
2023-08-15T16:19:35.947Z,36.02
2023-08-15T16:22:11.218Z,34.25
2023-08-15T16:38:35.886Z,32.73
2023-08-15T16:41:03.909Z,34.45
2023-08-15T16:43:32.232Z,32.80
2023-08-15T16:46:00.285Z,32.96
2023-08-15T16:48:29.058Z,33.04
2023-08-15T16:50:56.970Z,32.26
2023-08-15T16:53:25.195Z,32.98
2023-08-15T16:55:54.606Z,32.69
2023-08-15T16:58:22.672Z,32.59
2023-08-15T17:00:52.338Z,34.31
2023-08-15T17:03:21.159Z,31.38
2023-08-15T17:05:50.488Z,32.46
2023-08-15T17:08:18.462Z,32.10
2023-08-15T17:10:46.550Z,32.12
2023-08-15T17:13:15.975Z,30.87
2023-08-15T17:15:43.859Z,30.87
2023-08-15T17:18:11.769Z,30.26
2023-08-15T17:20:46.710Z,29.80
2023-08-15T17:23:14.650Z,29.20
2023-08-15T17:25:42.960Z,30.02
2023-08-15T17:28:11.621Z,31.43
2023-08-15T17:30:41.188Z,32.24
2023-08-15T17:33:09.204Z,31.24
2023-08-15T17:35:37.440Z,30.35
2023-08-15T17:38:06.592Z,30.79
2023-08-15T17:40:35.762Z,31.28
2023-08-15T17:43:03.849Z,30.97
2023-08-15T17:45:31.788Z,30.99
2023-08-15T17:48:01.304Z,30.26
2023-08-15T17:50:29.493Z,31.24
2023-08-15T17:52:57.742Z,30.72
2023-08-15T17:55:27.159Z,30.89
2023-08-15T17:57:55.662Z,31.66
2023-08-15T18:00:24.811Z,30.63
2023-08-15T18:02:56.007Z,31.15
2023-08-15T18:05:26.858Z,31.40
2023-08-15T18:07:54.952Z,29.82
2023-08-15T18:10:24.628Z,29.54
2023-08-15T18:12:52.753Z,30.47
2023-08-15T18:15:25.006Z,30.53
2023-08-15T18:17:54.924Z,29.19
2023-08-15T18:20:36.518Z,29.26
2023-08-15T18:23:05.628Z,28.15
2023-08-15T18:25:33.933Z,27.98
2023-08-15T18:28:03.536Z,27.37
2023-08-15T18:30:32.477Z,27.24
2023-08-15T18:33:01.193Z,27.23
2023-08-15T18:35:30.061Z,27.02
2023-08-15T18:37:59.758Z,26.81
2023-08-15T18:40:29.934Z,26.81
2023-08-15T18:43:00.272Z,26.63
2023-08-15T18:45:32.746Z,26.55
2023-08-15T18:48:01.528Z,26.47
2023-08-15T18:50:30.129Z,26.38
2023-08-15T18:53:01.030Z,26.30
2023-08-15T18:55:29.202Z,26.06
2023-08-15T18:58:12.878Z,26.01
2023-08-15T19:00:45.526Z,25.75
2023-08-15T19:03:14.616Z,25.55
2023-08-15T19:05:47.950Z,25.58
2023-08-15T19:08:19.261Z,25.35
2023-08-15T19:10:47.420Z,25.21
2023-08-15T19:13:22.302Z,25.04
2023-08-15T19:15:51.443Z,24.96
2023-08-15T19:18:19.684Z,24.89
2023-08-15T19:20:48.635Z,24.83
2023-08-15T19:23:27.781Z,24.75
2023-08-15T19:25:58.301Z,24.67
2023-08-15T19:28:28.576Z,24.70
2023-08-15T19:30:56.923Z,24.55
2023-08-15T19:33:25.604Z,24.38
2023-08-15T19:36:01.337Z,24.38
2023-08-15T19:38:39.324Z,24.32
2023-08-15T19:41:07.677Z,24.19
2023-08-15T19:43:35.961Z,24.25
2023-08-15T19:46:04.621Z,24.01
2023-08-15T19:48:32.682Z,23.90
2023-08-15T19:51:04.109Z,23.64
2023-08-15T19:53:34.369Z,23.51
2023-08-15T19:56:03.585Z,23.33
2023-08-15T19:58:32.562Z,23.24
2023-08-15T20:01:02.719Z,23.14
2023-08-15T20:03:31.714Z,23.09
2023-08-15T20:05:59.962Z,22.91
2023-08-15T20:08:28.039Z,22.91
2023-08-15T20:10:58.851Z,23.05
2023-08-15T20:13:27.045Z,22.88
2023-08-15T20:15:58.976Z,22.83
2023-08-15T20:18:27.271Z,22.64
2023-08-15T20:21:08.864Z,22.68
2023-08-15T20:23:45.057Z,22.98
2023-08-15T20:26:21.532Z,22.64
2023-08-15T20:28:50.545Z,22.46
2023-08-15T20:31:18.753Z,22.40
2023-08-15T20:33:46.912Z,22.33
2023-08-15T20:36:15.099Z,22.42
2023-08-15T20:38:43.193Z,22.57
2023-08-15T20:41:11.205Z,22.29
2023-08-15T20:43:40.766Z,22.40
2023-08-15T20:46:09.003Z,22.61
2023-08-15T20:48:36.853Z,22.69
2023-08-15T20:51:05.203Z,22.69
2023-08-15T20:53:33.284Z,22.43
2023-08-15T20:56:04.038Z,22.15
2023-08-15T20:58:33.204Z,22.12
2023-08-15T21:01:05.073Z,21.91
2023-08-15T21:03:33.095Z,21.76
2023-08-15T21:06:01.228Z,21.71
2023-08-15T21:08:30.837Z,21.90
2023-08-15T21:11:07.177Z,21.64
2023-08-15T21:13:35.338Z,21.62
2023-08-15T21:16:04.900Z,21.83
2023-08-15T21:18:35.581Z,21.95
2023-08-15T21:21:03.707Z,21.76
2023-08-15T21:23:33.951Z,21.77
2023-08-15T21:26:02.219Z,21.72
2023-08-15T21:28:31.309Z,21.72
2023-08-15T21:30:59.339Z,21.48
2023-08-15T21:33:29.035Z,21.53
2023-08-15T21:35:57.185Z,21.27
2023-08-15T21:38:25.548Z,21.13
2023-08-15T21:40:55.574Z,21.16
2023-08-15T21:43:23.562Z,21.13
2023-08-15T21:45:52.960Z,21.31
2023-08-15T21:48:21.511Z,21.25
2023-08-15T21:50:55.314Z,21.44
2023-08-15T21:53:23.498Z,21.52
2023-08-15T21:55:51.631Z,21.51
2023-08-15T21:58:20.019Z,21.78
2023-08-15T22:00:48.405Z,21.40
2023-08-15T22:03:16.357Z,21.13
2023-08-15T22:05:48.816Z,21.33
2023-08-15T22:08:18.267Z,21.44
2023-08-15T22:10:47.604Z,21.51
2023-08-15T22:13:17.115Z,21.16
2023-08-15T22:15:46.807Z,20.99
2023-08-15T22:18:20.500Z,20.84
2023-08-15T22:20:49.760Z,21.00
2023-08-15T22:23:19.307Z,21.32
2023-08-15T22:25:48.741Z,21.37
2023-08-15T22:28:17.288Z,21.40
2023-08-15T22:30:46.138Z,21.43
2023-08-15T22:33:15.553Z,21.38
2023-08-15T22:35:44.658Z,21.38
2023-08-15T22:38:12.722Z,21.36
2023-08-15T22:40:42.557Z,21.00
2023-08-15T22:43:10.628Z,20.69
2023-08-15T22:45:43.001Z,20.56
2023-08-15T22:48:11.379Z,20.46
2023-08-15T22:50:39.541Z,20.41
2023-08-15T22:53:07.889Z,20.35
2023-08-15T22:55:37.638Z,20.34
2023-08-15T22:58:07.016Z,20.47
2023-08-15T23:00:34.960Z,20.81
2023-08-15T23:03:03.057Z,20.62
2023-08-15T23:05:33.006Z,20.43
2023-08-15T23:08:01.019Z,20.55
2023-08-15T23:10:28.979Z,20.72
2023-08-15T23:12:57.921Z,20.75
2023-08-15T23:15:27.961Z,20.90
2023-08-15T23:17:56.470Z,20.80
2023-08-15T23:20:24.844Z,20.56
2023-08-15T23:22:52.964Z,20.39
2023-08-15T23:25:20.957Z,20.37
2023-08-15T23:27:51.264Z,20.13
2023-08-15T23:30:21.200Z,20.15
2023-08-15T23:32:50.967Z,20.47
2023-08-15T23:35:19.468Z,20.68
2023-08-15T23:37:49.258Z,20.78
2023-08-15T23:40:18.035Z,20.77
2023-08-15T23:42:47.845Z,20.66
2023-08-15T23:45:17.588Z,20.68
2023-08-15T23:47:46.305Z,20.58
2023-08-15T23:50:15.753Z,20.43
2023-08-15T23:52:43.696Z,20.12
2023-08-15T23:55:11.855Z,19.87
2023-08-15T23:57:40.378Z,19.74
